Time;durP1;ratioP1;P1;durP2;ratioP2;P2;SDS_P1;SDS_P2;PMS_P1;PMS_P2;Temp;Humidity;BMP_temperature;BMP_pressure;BME280_temperature;BME280_humidity;BME280_pressure;Samples;Min_cycle;Max_cycle;Signal;HPM_P1;HPM_P2
2022/11/20 00:01:34;;;;;;;13.73;9.23;;;;;;;;;;5112573;27;20194;-85
2022/11/20 00:04:01;;;;;;;16.13;9.40;;;;;;;;;;5111245;28;20684;-85
2022/11/20 00:06:32;;;;;;;12.70;8.60;;;;;;;;;;5101241;28;20312;-85
2022/11/20 00:09:01;;;;;;;12.53;7.97;;;;;;;;;;5086167;28;20196;-85
2022/11/20 00:11:30;;;;;;;12.40;8.47;;;;;;;;;;5109195;28;20236;-85
2022/11/20 00:13:59;;;;;;;14.50;7.70;;;;;;;;;;5097900;28;20291;-85
2022/11/20 00:16:26;;;;;;;12.67;7.97;;;;;;;;;;5105852;28;20205;-85
2022/11/20 00:18:54;;;;;;;11.60;8.13;;;;;;;;;;5096221;28;20290;-85
2022/11/20 00:21:22;;;;;;;16.90;8.67;;;;;;;;;;5106033;28;20229;-85
2022/11/20 00:23:49;;;;;;;14.13;8.00;;;;;;;;;;5098133;28;20285;-85
2022/11/20 00:26:17;;;;;;;13.90;7.93;;;;;;;;;;5094708;28;20213;-85
2022/11/20 00:28:50;;;;;;;13.43;8.43;;;;;;;;;;5097374;28;20229;-85
2022/11/20 00:31:18;;;;;;;11.27;7.60;;;;;;;;;;5093682;28;20202;-85
2022/11/20 00:33:45;;;;;;;15.47;8.57;;;;;;;;;;5074389;28;20685;-85
2022/11/20 00:36:14;;;;;;;18.20;8.70;;;;;;;;;;5090240;28;20227;-85
2022/11/20 00:38:41;;;;;;;12.47;8.03;;;;;;;;;;5094063;28;20221;-85
2022/11/20 00:41:10;;;;;;;11.57;7.53;;;;;;;;;;5096322;28;20256;-85
2022/11/20 00:43:38;;;;;;;14.47;7.37;;;;;;;;;;5106680;28;20205;-85
2022/11/20 00:46:07;;;;;;;14.97;8.40;;;;;;;;;;5084286;28;20245;-85
2022/11/20 00:48:34;;;;;;;13.67;8.30;;;;;;;;;;5094034;28;20287;-84
2022/11/20 00:51:02;;;;;;;13.63;7.77;;;;;;;;;;5102776;28;20310;-84
2022/11/20 00:53:29;;;;;;;11.97;7.17;;;;;;;;;;5103695;28;20743;-85
2022/11/20 00:55:57;;;;;;;12.00;7.37;;;;;;;;;;5097263;28;20224;-85
2022/11/20 00:58:25;;;;;;;14.07;7.07;;;;;;;;;;5080095;28;20744;-84
2022/11/20 01:00:52;;;;;;;12.17;6.73;;;;;;;;;;5102465;28;20282;-84
2022/11/20 01:03:21;;;;;;;10.23;6.60;;;;;;;;;;5090195;28;20290;-85
2022/11/20 01:05:48;;;;;;;13.43;7.43;;;;;;;;;;5098247;28;20630;-84
2022/11/20 01:08:15;;;;;;;12.03;7.00;;;;;;;;;;5106299;28;20256;-85
2022/11/20 01:10:42;;;;;;;9.90;6.70;;;;;;;;;;5092088;28;20698;-85
2022/11/20 01:15:54;;;;;;;14.47;7.07;;;;;;;;;;5109530;28;20189;-84
2022/11/20 01:18:23;;;;;;;12.37;7.10;;;;;;;;;;5096924;28;20281;-84
2022/11/20 01:20:50;;;;;;;12.33;7.23;;;;;;;;;;5089130;28;20728;-83
2022/11/20 01:23:18;;;;;;;10.07;6.77;;;;;;;;;;5103345;28;20638;-84
2022/11/20 01:25:45;;;;;;;9.47;6.87;;;;;;;;;;5085243;28;20289;-85
2022/11/20 01:28:12;;;;;;;12.13;6.93;;;;;;;;;;5098308;28;20253;-84
2022/11/20 01:30:40;;;;;;;10.70;6.67;;;;;;;;;;5111603;28;20249;-84
2022/11/20 01:33:07;;;;;;;10.13;6.03;;;;;;;;;;5098215;28;20281;-84
2022/11/20 01:35:38;;;;;;;11.37;7.07;;;;;;;;;;5100467;28;20305;-84
2022/11/20 01:38:06;;;;;;;11.80;7.10;;;;;;;;;;5077001;28;20193;-84
2022/11/20 01:40:33;;;;;;;9.50;6.70;;;;;;;;;;5104317;28;20197;-84
2022/11/20 01:43:22;;;;;;;10.40;7.47;;;;;;;;;;5111017;28;20228;-84
2022/11/20 01:46:05;;;;;;;10.23;7.10;;;;;;;;;;5104063;28;20728;-84
2022/11/20 01:48:35;;;;;;;10.40;7.37;;;;;;;;;;5096659;27;20317;-84
2022/11/20 01:51:05;;;;;;;13.70;7.93;;;;;;;;;;5095413;28;20236;-84
2022/11/20 01:53:35;;;;;;;11.57;7.33;;;;;;;;;;5110541;28;20276;-80
2022/11/20 01:56:03;;;;;;;10.83;7.37;;;;;;;;;;5102676;28;20235;-79
2022/11/20 01:58:31;;;;;;;11.17;7.37;;;;;;;;;;5112366;27;20628;-79
2022/11/20 02:00:59;;;;;;;12.03;6.77;;;;;;;;;;5105491;28;20309;-79
2022/11/20 02:03:26;;;;;;;13.40;7.13;;;;;;;;;;5093637;28;20225;-79
2022/11/20 02:05:55;;;;;;;12.83;7.53;;;;;;;;;;5098655;28;20225;-79
2022/11/20 02:08:24;;;;;;;12.13;7.27;;;;;;;;;;5106464;28;20217;-78
2022/11/20 02:10:52;;;;;;;14.30;7.70;;;;;;;;;;5098293;28;20636;-79
2022/11/20 02:16:06;;;;;;;11.47;7.03;;;;;;;;;;5104766;28;20700;-79
2022/11/20 02:18:33;;;;;;;13.33;7.10;;;;;;;;;;5110927;28;20194;-78
2022/11/20 02:21:05;;;;;;;11.33;7.20;;;;;;;;;;5093812;28;20225;-79
2022/11/20 02:23:39;;;;;;;10.53;6.37;;;;;;;;;;5100683;28;20661;-79
2022/11/20 02:26:09;;;;;;;14.40;6.90;;;;;;;;;;5113326;28;20208;-78
2022/11/20 02:28:36;;;;;;;9.53;7.47;;;;;;;;;;5109971;28;20248;-78
2022/11/20 02:31:03;;;;;;;9.47;7.10;;;;;;;;;;5098955;28;20327;-79
2022/11/20 02:33:31;;;;;;;9.43;6.77;;;;;;;;;;5105437;28;20285;-79
2022/11/20 02:35:58;;;;;;;11.10;7.10;;;;;;;;;;5106627;28;20226;-79
2022/11/20 02:38:25;;;;;;;12.83;7.40;;;;;;;;;;5092246;28;20222;-79
2022/11/20 02:40:52;;;;;;;12.73;6.70;;;;;;;;;;5106536;28;20233;-78
2022/11/20 02:43:21;;;;;;;14.20;7.43;;;;;;;;;;5107459;28;20622;-78
2022/11/20 02:45:48;;;;;;;12.30;6.73;;;;;;;;;;5093817;28;20281;-79
2022/11/20 02:48:15;;;;;;;11.23;7.50;;;;;;;;;;5098960;28;20297;-79
2022/11/20 02:50:43;;;;;;;11.70;6.90;;;;;;;;;;5101902;28;20208;-78
2022/11/20 02:53:10;;;;;;;10.37;6.97;;;;;;;;;;5111238;28;20204;-79
2022/11/20 02:55:37;;;;;;;13.70;7.63;;;;;;;;;;5110170;28;20281;-78
2022/11/20 02:58:04;;;;;;;8.93;6.67;;;;;;;;;;5097056;28;20191;-79
2022/11/20 03:00:33;;;;;;;11.60;6.97;;;;;;;;;;5106536;28;20232;-79
2022/11/20 03:03:00;;;;;;;10.13;7.00;;;;;;;;;;5114963;28;20201;-79
2022/11/20 03:05:27;;;;;;;12.27;7.27;;;;;;;;;;5110971;28;20931;-79
2022/11/20 03:07:55;;;;;;;10.90;6.80;;;;;;;;;;5100652;28;20321;-79
2022/11/20 03:10:22;;;;;;;10.63;6.80;;;;;;;;;;5105012;28;20310;-79
2022/11/20 03:12:49;;;;;;;11.00;7.90;;;;;;;;;;5091483;28;20280;-79
2022/11/20 03:15:16;;;;;;;11.30;7.53;;;;;;;;;;5108836;28;20276;-79
2022/11/20 03:17:45;;;;;;;10.47;7.40;;;;;;;;;;5102485;28;20226;-79
2022/11/20 03:20:12;;;;;;;10.87;7.30;;;;;;;;;;5107433;28;20628;-78
2022/11/20 03:22:39;;;;;;;10.33;6.70;;;;;;;;;;5100827;28;20284;-78
2022/11/20 03:25:07;;;;;;;12.73;7.20;;;;;;;;;;5112307;28;20908;-79
2022/11/20 03:27:35;;;;;;;12.30;7.37;;;;;;;;;;5114921;28;20324;-78
2022/11/20 03:30:02;;;;;;;9.70;6.67;;;;;;;;;;5114764;28;20213;-78
2022/11/20 03:32:29;;;;;;;10.53;7.03;;;;;;;;;;5099361;28;20226;-78
2022/11/20 03:34:58;;;;;;;11.43;7.60;;;;;;;;;;5106425;28;20595;-78
2022/11/20 03:37:25;;;;;;;11.97;7.23;;;;;;;;;;5101703;28;20272;-78
2022/11/20 03:39:52;;;;;;;13.33;7.27;;;;;;;;;;5091979;28;20230;-78
2022/11/20 03:45:05;;;;;;;12.40;7.00;;;;;;;;;;5107163;28;20232;-79
2022/11/20 03:47:32;;;;;;;11.50;7.50;;;;;;;;;;5091207;28;20698;-78
2022/11/20 03:50:00;;;;;;;11.40;7.17;;;;;;;;;;5098969;28;20324;-78
2022/11/20 03:52:28;;;;;;;11.67;6.97;;;;;;;;;;5096641;28;20708;-78
2022/11/20 03:54:55;;;;;;;14.13;6.93;;;;;;;;;;5100995;28;20281;-78
2022/11/20 03:57:23;;;;;;;11.43;6.80;;;;;;;;;;5111655;28;20280;-78
2022/11/20 03:59:50;;;;;;;9.60;6.90;;;;;;;;;;5097545;28;20551;-78
2022/11/20 04:02:17;;;;;;;12.03;6.77;;;;;;;;;;5107826;28;20646;-78
2022/11/20 04:04:44;;;;;;;11.10;6.90;;;;;;;;;;5099102;28;20228;-78
2022/11/20 04:07:13;;;;;;;10.50;7.40;;;;;;;;;;5099775;27;20273;-79
2022/11/20 04:09:40;;;;;;;12.17;6.93;;;;;;;;;;5094541;28;20712;-79
2022/11/20 04:12:07;;;;;;;9.70;6.80;;;;;;;;;;5098385;28;20201;-79
2022/11/20 04:14:34;;;;;;;10.80;6.83;;;;;;;;;;5111509;28;20699;-78
2022/11/20 04:17:01;;;;;;;9.63;6.80;;;;;;;;;;5095113;28;20229;-78
2022/11/20 04:19:29;;;;;;;11.53;6.13;;;;;;;;;;5095227;28;20249;-78
2022/11/20 04:21:56;;;;;;;8.00;5.77;;;;;;;;;;5106777;28;20232;-78
2022/11/20 04:24:24;;;;;;;11.40;6.10;;;;;;;;;;5099470;28;20229;-78
2022/11/20 04:26:51;;;;;;;14.33;6.90;;;;;;;;;;5107751;28;20277;-78
2022/11/20 04:29:19;;;;;;;11.17;6.50;;;;;;;;;;5099685;28;20299;-79
2022/11/20 04:31:46;;;;;;;10.43;6.80;;;;;;;;;;5105795;28;20229;-78
2022/11/20 04:34:13;;;;;;;12.03;6.50;;;;;;;;;;5115265;28;20228;-78
2022/11/20 04:36:40;;;;;;;12.23;6.30;;;;;;;;;;5111786;28;20281;-79
2022/11/20 04:39:08;;;;;;;11.00;7.07;;;;;;;;;;5099233;28;20225;-79
2022/11/20 04:41:37;;;;;;;11.53;6.37;;;;;;;;;;5107221;28;20229;-78
2022/11/20 04:44:05;;;;;;;10.90;6.60;;;;;;;;;;5099663;28;20313;-79
2022/11/20 04:46:34;;;;;;;13.10;6.23;;;;;;;;;;5107103;28;20252;-84
2022/11/20 04:49:01;;;;;;;9.17;5.90;;;;;;;;;;5104453;28;20252;-83
2022/11/20 04:51:28;;;;;;;9.33;6.17;;;;;;;;;;5108919;28;20229;-83
2022/11/20 04:53:56;;;;;;;10.50;6.03;;;;;;;;;;5101602;28;20308;-83
2022/11/20 04:56:23;;;;;;;10.80;5.70;;;;;;;;;;5103760;28;20734;-84
2022/11/20 04:58:51;;;;;;;16.20;6.13;;;;;;;;;;5096811;28;20616;-83
2022/11/20 05:01:20;;;;;;;12.57;6.40;;;;;;;;;;5099384;28;20198;-84
2022/11/20 05:03:47;;;;;;;11.53;5.90;;;;;;;;;;5110657;28;20289;-84
2022/11/20 05:06:15;;;;;;;9.63;5.67;;;;;;;;;;5114205;28;20703;-83
2022/11/20 05:08:43;;;;;;;10.43;5.67;;;;;;;;;;5103692;27;20316;-83
2022/11/20 05:11:11;;;;;;;8.53;5.83;;;;;;;;;;5106102;28;20233;-83
2022/11/20 05:13:39;;;;;;;12.53;6.00;;;;;;;;;;5114026;28;20229;-83
2022/11/20 05:16:09;;;;;;;8.17;5.90;;;;;;;;;;5113787;28;20208;-83
2022/11/20 05:18:36;;;;;;;10.17;5.90;;;;;;;;;;5097235;28;20218;-83
2022/11/20 05:21:04;;;;;;;11.53;5.40;;;;;;;;;;5101631;28;20229;-83
2022/11/20 05:23:32;;;;;;;10.70;5.30;;;;;;;;;;5105398;28;20248;-83
2022/11/20 05:25:59;;;;;;;11.53;5.77;;;;;;;;;;5113981;28;20751;-83
2022/11/20 05:28:27;;;;;;;9.80;5.87;;;;;;;;;;5097699;28;20254;-83
2022/11/20 05:30:54;;;;;;;11.03;5.60;;;;;;;;;;5100604;28;20232;-84
2022/11/20 05:33:23;;;;;;;7.27;5.00;;;;;;;;;;5092562;28;20249;-82
2022/11/20 05:35:51;;;;;;;9.43;5.00;;;;;;;;;;5099115;28;20676;-83
2022/11/20 05:38:18;;;;;;;10.67;5.20;;;;;;;;;;5102371;28;20276;-82
2022/11/20 05:40:45;;;;;;;10.27;5.53;;;;;;;;;;5096072;28;20713;-83
2022/11/20 05:43:13;;;;;;;9.17;5.40;;;;;;;;;;5099647;28;20214;-83
2022/11/20 05:45:40;;;;;;;11.20;5.00;;;;;;;;;;5096883;28;20282;-83
2022/11/20 05:48:07;;;;;;;8.47;4.60;;;;;;;;;;5106220;28;20230;-83
2022/11/20 05:50:36;;;;;;;8.63;5.03;;;;;;;;;;5098070;28;20696;-83
2022/11/20 05:53:03;;;;;;;8.97;5.50;;;;;;;;;;5098945;28;20335;-83
2022/11/20 05:55:30;;;;;;;11.10;5.20;;;;;;;;;;5096312;28;20670;-82
2022/11/20 05:57:57;;;;;;;10.00;4.97;;;;;;;;;;5099379;28;20753;-83
2022/11/20 06:00:25;;;;;;;10.27;5.00;;;;;;;;;;5102838;28;20725;-83
2022/11/20 06:02:52;;;;;;;10.53;4.63;;;;;;;;;;5096390;28;20277;-83
2022/11/20 06:05:19;;;;;;;10.87;4.93;;;;;;;;;;5097045;28;20278;-83
2022/11/20 06:07:50;;;;;;;10.10;5.10;;;;;;;;;;5103656;28;20282;-83
2022/11/20 06:10:18;;;;;;;8.67;4.47;;;;;;;;;;5105856;28;20308;-83
2022/11/20 06:12:45;;;;;;;9.77;4.57;;;;;;;;;;5110310;28;20740;-82
2022/11/20 06:15:12;;;;;;;8.43;4.30;;;;;;;;;;5107459;28;20226;-84
2022/11/20 06:17:39;;;;;;;6.83;4.60;;;;;;;;;;5101019;28;20229;-84
2022/11/20 06:20:07;;;;;;;12.27;4.90;;;;;;;;;;5105913;28;20290;-83
2022/11/20 06:22:34;;;;;;;8.53;4.63;;;;;;;;;;5089418;28;20230;-83
2022/11/20 06:25:03;;;;;;;8.90;4.47;;;;;;;;;;5097700;28;20632;-84
2022/11/20 06:27:30;;;;;;;8.83;5.20;;;;;;;;;;5091807;28;20701;-84
2022/11/20 06:29:57;;;;;;;8.90;5.00;;;;;;;;;;5099647;28;20658;-83
2022/11/20 06:32:24;;;;;;;8.20;4.70;;;;;;;;;;5100345;28;20280;-83
2022/11/20 06:34:51;;;;;;;9.20;4.53;;;;;;;;;;5106231;28;20241;-84
2022/11/20 06:37:19;;;;;;;7.93;5.10;;;;;;;;;;5109278;28;20662;-83
2022/11/20 06:39:46;;;;;;;6.80;4.90;;;;;;;;;;5104578;28;20194;-83
2022/11/20 06:42:14;;;;;;;7.67;4.67;;;;;;;;;;5093635;28;20198;-83
2022/11/20 06:44:42;;;;;;;8.27;5.70;;;;;;;;;;5088581;28;20230;-83
2022/11/20 06:47:09;;;;;;;6.30;3.90;;;;;;;;;;5105222;28;20280;-82
2022/11/20 06:49:38;;;;;;;6.07;3.40;;;;;;;;;;5094430;28;20253;-81
2022/11/20 06:52:05;;;;;;;6.20;2.70;;;;;;;;;;5101635;28;20206;-82
2022/11/20 06:54:32;;;;;;;4.47;2.27;;;;;;;;;;5094049;28;20285;-81
2022/11/20 06:57:00;;;;;;;4.00;2.53;;;;;;;;;;5097457;28;20281;-82
2022/11/20 06:59:28;;;;;;;5.63;3.57;;;;;;;;;;5091527;28;20285;-82
2022/11/20 07:01:56;;;;;;;4.23;2.70;;;;;;;;;;5084755;28;20277;-82
2022/11/20 07:04:23;;;;;;;4.23;2.20;;;;;;;;;;5079804;28;20227;-81
2022/11/20 07:06:50;;;;;;;4.33;2.10;;;;;;;;;;5097234;28;20190;-81
2022/11/20 07:09:18;;;;;;;3.30;2.10;;;;;;;;;;5098147;28;20315;-82
2022/11/20 07:11:45;;;;;;;4.10;2.27;;;;;;;;;;5094761;28;20234;-81
2022/11/20 07:14:12;;;;;;;3.20;1.97;;;;;;;;;;5094089;28;20203;-82
2022/11/20 07:16:41;;;;;;;2.93;2.00;;;;;;;;;;5093344;28;20287;-82
2022/11/20 07:19:08;;;;;;;3.50;2.00;;;;;;;;;;5075561;28;20287;-82
2022/11/20 07:21:35;;;;;;;3.93;1.97;;;;;;;;;;5091485;28;20282;-82
2022/11/20 07:24:02;;;;;;;3.00;1.97;;;;;;;;;;5097846;28;20197;-82
2022/11/20 07:26:29;;;;;;;3.60;2.10;;;;;;;;;;5101211;28;20231;-82
2022/11/20 07:28:57;;;;;;;3.33;2.07;;;;;;;;;;5091500;28;20306;-82
2022/11/20 07:31:24;;;;;;;3.53;2.27;;;;;;;;;;5098578;28;20229;-82
2022/11/20 07:33:53;;;;;;;3.83;2.07;;;;;;;;;;5100158;28;20196;-81
2022/11/20 07:36:20;;;;;;;3.13;1.90;;;;;;;;;;5100332;28;20685;-82
2022/11/20 07:38:47;;;;;;;4.70;2.33;;;;;;;;;;5094152;28;20293;-82
2022/11/20 07:41:14;;;;;;;4.53;2.20;;;;;;;;;;5090423;28;20286;-82
2022/11/20 07:43:41;;;;;;;2.70;2.30;;;;;;;;;;5092715;28;20296;-82
2022/11/20 07:46:08;;;;;;;3.80;2.30;;;;;;;;;;5111475;28;20677;-82
2022/11/20 07:48:36;;;;;;;3.53;2.43;;;;;;;;;;5113841;28;20303;-82
2022/11/20 07:51:04;;;;;;;3.20;2.40;;;;;;;;;;5113813;28;20195;-82
2022/11/20 07:53:32;;;;;;;3.77;3.00;;;;;;;;;;5115467;28;20232;-82
2022/11/20 07:56:01;;;;;;;5.30;3.30;;;;;;;;;;5102569;28;20196;-83
2022/11/20 07:58:32;;;;;;;5.53;3.10;;;;;;;;;;5112429;28;20268;-82
2022/11/20 08:01:00;;;;;;;4.43;3.57;;;;;;;;;;5098207;28;20268;-82
2022/11/20 08:03:27;;;;;;;4.23;3.43;;;;;;;;;;5092152;28;20292;-82
2022/11/20 08:05:57;;;;;;;5.60;4.20;;;;;;;;;;5100677;28;20265;-80
2022/11/20 08:08:25;;;;;;;5.23;3.90;;;;;;;;;;5102909;28;20220;-80
2022/11/20 08:14:11;;;;;;;4.70;3.93;;;;;;;;;;5107902;28;20261;-82
2022/11/20 08:16:25;;;;;;;3.80;2.93;;;;;;;;;;5094392;28;20195;-82
2022/11/20 08:18:56;;;;;;;5.93;3.83;;;;;;;;;;5095829;28;20225;-82
2022/11/20 08:21:23;;;;;;;5.53;4.23;;;;;;;;;;5103272;28;20227;-82
2022/11/20 08:23:52;;;;;;;10.03;5.83;;;;;;;;;;5099434;28;20225;-82
2022/11/20 08:26:19;;;;;;;18.10;10.63;;;;;;;;;;5104296;28;20228;-82
2022/11/20 08:28:46;;;;;;;15.20;11.07;;;;;;;;;;5107230;28;20293;-82
2022/11/20 08:31:14;;;;;;;17.33;11.97;;;;;;;;;;5105291;28;20293;-82
2022/11/20 08:33:41;;;;;;;12.23;8.77;;;;;;;;;;5097965;28;20258;-82
2022/11/20 08:36:08;;;;;;;11.63;8.40;;;;;;;;;;5102543;28;20683;-82
2022/11/20 08:38:36;;;;;;;10.70;6.97;;;;;;;;;;5092916;28;20233;-81
2022/11/20 08:43:47;;;;;;;7.53;6.70;;;;;;;;;;5090862;28;20209;-81
2022/11/20 08:46:14;;;;;;;5.63;5.07;;;;;;;;;;5096703;28;20216;-81
2022/11/20 08:48:41;;;;;;;6.23;5.20;;;;;;;;;;5100418;28;20346;-81
2022/11/20 08:51:09;;;;;;;6.80;4.80;;;;;;;;;;5094175;28;20694;-83
2022/11/20 08:53:36;;;;;;;6.30;4.83;;;;;;;;;;5106697;28;20239;-83
2022/11/20 08:56:05;;;;;;;5.30;4.60;;;;;;;;;;5108507;28;20225;-83
2022/11/20 08:58:32;;;;;;;6.47;5.40;;;;;;;;;;5094539;28;20290;-83
2022/11/20 09:00:59;;;;;;;5.37;4.00;;;;;;;;;;5095752;28;20225;-82
2022/11/20 09:03:27;;;;;;;7.20;5.07;;;;;;;;;;5098977;28;20622;-83
2022/11/20 09:05:58;;;;;;;6.73;5.97;;;;;;;;;;5101324;28;20233;-82
2022/11/20 09:08:25;;;;;;;7.43;5.50;;;;;;;;;;5097163;28;20229;-82
2022/11/20 09:10:53;;;;;;;6.97;4.70;;;;;;;;;;5096332;28;20248;-82
2022/11/20 09:13:22;;;;;;;6.90;5.30;;;;;;;;;;5094882;28;20581;-82
2022/11/20 09:15:54;;;;;;;4.20;3.10;;;;;;;;;;5095724;28;20244;-82
2022/11/20 09:18:21;;;;;;;4.93;3.77;;;;;;;;;;5092196;28;20272;-81
2022/11/20 09:20:48;;;;;;;3.93;2.60;;;;;;;;;;5094221;28;20662;-82
2022/11/20 09:23:16;;;;;;;4.43;2.73;;;;;;;;;;5092677;28;22025;-82
2022/11/20 09:25:43;;;;;;;4.43;2.73;;;;;;;;;;5086529;28;20199;-82
2022/11/20 09:28:10;;;;;;;3.67;2.23;;;;;;;;;;5096346;28;20232;-81
2022/11/20 09:30:39;;;;;;;4.77;2.33;;;;;;;;;;5093277;28;20230;-82
2022/11/20 09:33:07;;;;;;;6.37;2.70;;;;;;;;;;5093670;28;20198;-82
2022/11/20 09:35:34;;;;;;;6.83;2.67;;;;;;;;;;5096460;28;20244;-81
2022/11/20 09:38:06;;;;;;;8.70;2.77;;;;;;;;;;5102088;28;20233;-82
2022/11/20 09:40:33;;;;;;;8.70;2.80;;;;;;;;;;5094432;28;20198;-82
2022/11/20 09:43:03;;;;;;;7.83;2.77;;;;;;;;;;5094007;28;20198;-82
2022/11/20 09:45:43;;;;;;;7.53;2.67;;;;;;;;;;5092728;28;20194;-82
2022/11/20 09:48:22;;;;;;;9.23;2.73;;;;;;;;;;5108089;28;20201;-83
2022/11/20 09:50:51;;;;;;;8.60;2.80;;;;;;;;;;5085586;28;20226;-83
2022/11/20 09:53:24;;;;;;;10.40;2.80;;;;;;;;;;5092069;28;20583;-83
2022/11/20 09:55:52;;;;;;;10.57;2.90;;;;;;;;;;5099544;28;20250;-82
2022/11/20 09:58:29;;;;;;;8.03;2.90;;;;;;;;;;5098742;28;20674;-84
2022/11/20 10:03:55;;;;;;;14.07;3.10;;;;;;;;;;5091734;28;20213;-84
2022/11/20 10:06:25;;;;;;;12.47;2.90;;;;;;;;;;5102233;28;20609;-82
2022/11/20 10:11:46;;;;;;;13.73;3.00;;;;;;;;;;5097873;28;20233;-83
2022/11/20 10:14:19;;;;;;;13.27;2.93;;;;;;;;;;5098040;28;20246;-84
2022/11/20 10:16:51;;;;;;;15.23;2.83;;;;;;;;;;5096062;28;20247;-83
2022/11/20 10:19:29;;;;;;;16.67;3.70;;;;;;;;;;5108007;28;20197;-83
2022/11/20 10:22:00;;;;;;;19.07;3.90;;;;;;;;;;5103061;28;20229;-81
2022/11/20 10:24:43;;;;;;;16.90;3.30;;;;;;;;;;5100240;28;20372;-85
2022/11/20 10:27:35;;;;;;;14.67;3.27;;;;;;;;;;5092330;28;20198;-84
2022/11/20 10:30:05;;;;;;;16.40;3.33;;;;;;;;;;5093225;28;20226;-83
2022/11/20 10:32:36;;;;;;;18.57;3.47;;;;;;;;;;5090418;28;20222;-83
2022/11/20 10:35:08;;;;;;;16.73;4.10;;;;;;;;;;5092741;28;20282;-83
2022/11/20 10:37:37;;;;;;;15.43;3.33;;;;;;;;;;5086455;28;20625;-83
2022/11/20 10:40:07;;;;;;;21.17;4.20;;;;;;;;;;5097116;28;20197;-84
2022/11/20 10:42:37;;;;;;;16.27;3.63;;;;;;;;;;5085398;28;20283;-83
2022/11/20 10:45:22;;;;;;;19.52;3.92;;;;;;;;;;5089836;28;20617;-83
2022/11/20 10:47:49;;;;;;;13.73;3.38;;;;;;;;;;5093834;28;20209;-84
2022/11/20 10:50:27;;;;;;;17.05;3.60;;;;;;;;;;5099347;28;20251;-83
2022/11/20 10:53:12;;;;;;;19.25;3.85;;;;;;;;;;5079170;28;20256;-81
2022/11/20 11:01:50;;;;;;;19.73;3.90;;;;;;;;;;5087423;28;20202;-81
2022/11/20 11:04:25;;;;;;;20.07;3.80;;;;;;;;;;5092122;28;20693;-81
2022/11/20 11:07:07;;;;;;;18.70;3.60;;;;;;;;;;5096572;28;20198;-81
2022/11/20 11:09:36;;;;;;;17.33;3.50;;;;;;;;;;5092436;28;20309;-81
2022/11/20 11:12:07;;;;;;;17.57;3.60;;;;;;;;;;5092218;28;20291;-81
2022/11/20 11:15:00;;;;;;;21.83;3.33;;;;;;;;;;5085971;28;20198;-81
2022/11/20 11:17:31;;;;;;;15.50;3.73;;;;;;;;;;5100540;28;20763;-82
2022/11/20 11:23:28;;;;;;;15.13;3.33;;;;;;;;;;5030143;28;20252;-82
2022/11/20 11:26:07;;;;;;;18.00;3.20;;;;;;;;;;5102357;28;20202;-81
2022/11/20 11:28:35;;;;;;;17.63;3.47;;;;;;;;;;5098204;28;20205;-81
2022/11/20 11:31:05;;;;;;;19.23;3.60;;;;;;;;;;5099492;28;20309;-81
2022/11/20 11:33:34;;;;;;;20.30;3.70;;;;;;;;;;5093823;28;20658;-81
2022/11/20 11:36:02;;;;;;;18.77;3.80;;;;;;;;;;5098256;28;20275;-81
2022/11/20 11:38:34;;;;;;;18.83;3.60;;;;;;;;;;5100036;28;20234;-80
2022/11/20 11:41:02;;;;;;;20.73;4.23;;;;;;;;;;5100824;28;20665;-84
2022/11/20 11:46:34;;;;;;;18.33;4.20;;;;;;;;;;5100307;28;20224;-85
2022/11/20 11:49:02;;;;;;;17.07;3.60;;;;;;;;;;5101858;28;20198;-85
2022/11/20 11:51:33;;;;;;;17.35;3.80;;;;;;;;;;5102711;28;20248;-82
2022/11/20 11:54:03;;;;;;;21.33;3.92;;;;;;;;;;5107557;28;20222;-84
2022/11/20 11:56:31;;;;;;;20.90;4.20;;;;;;;;;;5093499;28;20701;-85
2022/11/20 11:59:01;;;;;;;23.17;4.57;;;;;;;;;;5095917;28;20238;-84
2022/11/20 12:01:32;;;;;;;18.83;4.30;;;;;;;;;;5095269;28;20198;-86
2022/11/20 12:04:04;;;;;;;15.03;3.63;;;;;;;;;;5106018;28;20656;-84
2022/11/20 12:06:32;;;;;;;20.20;4.00;;;;;;;;;;5100294;28;20283;-84
2022/11/20 12:09:01;;;;;;;25.53;5.07;;;;;;;;;;5103191;28;20226;-84
2022/11/20 12:11:33;;;;;;;19.23;3.90;;;;;;;;;;5105568;28;20287;-83
2022/11/20 12:14:04;;;;;;;22.53;4.40;;;;;;;;;;5098800;28;20202;-83
2022/11/20 12:16:41;;;;;;;23.37;3.70;;;;;;;;;;5114700;28;20296;-82
2022/11/20 12:19:12;;;;;;;19.10;3.63;;;;;;;;;;5105631;28;20193;-82
2022/11/20 12:21:50;;;;;;;19.77;3.47;;;;;;;;;;5094411;28;20191;-82
2022/11/20 12:24:34;;;;;;;21.50;3.57;;;;;;;;;;5089382;28;20234;-82
2022/11/20 12:27:10;;;;;;;17.50;4.33;;;;;;;;;;5097303;28;20234;-82
2022/11/20 12:29:44;;;;;;;18.93;3.87;;;;;;;;;;5084527;28;20225;-82
2022/11/20 12:32:29;;;;;;;15.13;2.90;;;;;;;;;;5097809;28;20222;-82
2022/11/20 12:35:02;;;;;;;13.03;2.87;;;;;;;;;;5086684;28;20289;-83
2022/11/20 12:37:37;;;;;;;11.47;3.00;;;;;;;;;;5094198;28;20661;-81
2022/11/20 12:40:14;;;;;;;10.00;2.65;;;;;;;;;;5094206;28;20225;-81
2022/11/20 12:45:39;;;;;;;17.23;3.08;;;;;;;;;;5093302;28;20200;-81
2022/11/20 12:48:22;;;;;;;14.43;3.47;;;;;;;;;;5114999;28;20251;-81
2022/11/20 12:50:56;;;;;;;11.30;2.85;;;;;;;;;;5103318;28;20253;-82
2022/11/20 12:53:29;;;;;;;13.68;3.30;;;;;;;;;;5108343;28;20233;-80
2022/11/20 12:56:02;;;;;;;14.57;2.95;;;;;;;;;;5094212;28;20301;-82
2022/11/20 12:58:35;;;;;;;13.45;2.78;;;;;;;;;;5094989;28;20661;-84
2022/11/20 13:01:10;;;;;;;17.83;3.33;;;;;;;;;;5094314;28;20553;-83
2022/11/20 13:04:00;;;;;;;13.60;3.17;;;;;;;;;;5090822;28;20213;-84
2022/11/20 13:06:27;;;;;;;13.77;3.23;;;;;;;;;;5094281;28;20203;-84
2022/11/20 13:08:56;;;;;;;13.47;3.10;;;;;;;;;;5103145;28;20201;-85
2022/11/20 13:11:31;;;;;;;18.27;3.30;;;;;;;;;;5090259;28;20261;-83
2022/11/20 13:14:06;;;;;;;17.67;2.97;;;;;;;;;;5093242;28;20280;-84
2022/11/20 13:16:50;;;;;;;17.33;3.10;;;;;;;;;;5096155;28;20236;-84
2022/11/20 13:19:20;;;;;;;18.77;3.57;;;;;;;;;;5096859;28;20331;-84
2022/11/20 13:21:50;;;;;;;13.83;2.73;;;;;;;;;;5094716;28;20214;-83
2022/11/20 13:24:26;;;;;;;11.23;2.43;;;;;;;;;;5094307;28;20202;-83
2022/11/20 13:27:07;;;;;;;13.10;3.17;;;;;;;;;;5092909;28;20206;-85
2022/11/20 13:29:39;;;;;;;13.53;3.03;;;;;;;;;;5096022;28;20217;-83
2022/11/20 13:32:08;;;;;;;15.37;2.67;;;;;;;;;;5086548;28;20752;-84
2022/11/20 13:34:35;;;;;;;13.47;2.73;;;;;;;;;;5088995;28;20252;-85
2022/11/20 13:37:04;;;;;;;18.53;2.87;;;;;;;;;;5106609;28;20272;-85
2022/11/20 13:39:32;;;;;;;12.37;2.67;;;;;;;;;;5095345;28;20204;-85
2022/11/20 13:42:01;;;;;;;11.37;2.43;;;;;;;;;;5090518;28;20205;-84
2022/11/20 13:44:30;;;;;;;13.60;2.73;;;;;;;;;;5091212;28;20194;-85
2022/11/20 13:46:59;;;;;;;15.83;3.00;;;;;;;;;;5095649;28;20194;-84
2022/11/20 13:49:28;;;;;;;14.10;2.70;;;;;;;;;;5096788;28;20194;-83
2022/11/20 13:52:04;;;;;;;15.97;3.03;;;;;;;;;;5100639;28;20766;-84
2022/11/20 13:54:54;;;;;;;14.00;2.67;;;;;;;;;;5090509;28;20263;-83
2022/11/20 13:57:34;;;;;;;16.00;2.73;;;;;;;;;;5087004;28;20289;-84
2022/11/20 14:00:06;;;;;;;11.00;2.33;;;;;;;;;;5094939;28;20194;-84
2022/11/20 14:02:35;;;;;;;13.87;3.13;;;;;;;;;;5093177;28;20198;-83
2022/11/20 14:05:03;;;;;;;16.97;3.20;;;;;;;;;;5101671;28;20233;-84
2022/11/20 14:07:34;;;;;;;14.77;3.17;;;;;;;;;;5104486;28;20244;-84
2022/11/20 14:10:01;;;;;;;14.27;3.07;;;;;;;;;;5093806;28;20275;-83
2022/11/20 14:12:30;;;;;;;18.33;3.13;;;;;;;;;;5097157;28;20202;-84
2022/11/20 14:14:57;;;;;;;15.80;3.20;;;;;;;;;;5081234;28;20202;-86
2022/11/20 14:17:33;;;;;;;18.47;3.37;;;;;;;;;;5090753;28;20629;-84
2022/11/20 14:20:03;;;;;;;19.33;3.40;;;;;;;;;;5104412;28;20208;-84
2022/11/20 14:22:30;;;;;;;14.20;3.33;;;;;;;;;;5089664;28;20560;-83
2022/11/20 14:25:08;;;;;;;18.27;3.27;;;;;;;;;;5098416;28;20251;-84
2022/11/20 14:27:37;;;;;;;13.43;3.00;;;;;;;;;;5099122;28;20201;-84
2022/11/20 14:30:05;;;;;;;13.20;3.20;;;;;;;;;;5095846;28;20309;-83
2022/11/20 14:32:32;;;;;;;14.40;2.50;;;;;;;;;;5090214;28;20220;-83
2022/11/20 14:35:03;;;;;;;16.60;2.90;;;;;;;;;;5092137;28;20230;-84
2022/11/20 14:37:35;;;;;;;16.90;3.07;;;;;;;;;;5091306;28;20210;-84
2022/11/20 14:40:02;;;;;;;10.67;2.83;;;;;;;;;;5095886;28;20210;-84
2022/11/20 14:42:30;;;;;;;11.10;2.90;;;;;;;;;;5096796;28;20222;-84
2022/11/20 14:44:59;;;;;;;15.57;3.17;;;;;;;;;;5093379;28;20202;-83
2022/11/20 14:47:26;;;;;;;15.77;2.70;;;;;;;;;;5094159;28;20245;-84
2022/11/20 14:49:55;;;;;;;14.07;2.87;;;;;;;;;;5087055;28;20194;-84
2022/11/20 14:52:24;;;;;;;13.53;2.70;;;;;;;;;;5087118;28;20221;-85
2022/11/20 14:54:53;;;;;;;9.67;2.60;;;;;;;;;;5094515;28;20232;-84
2022/11/20 14:57:27;;;;;;;13.63;2.87;;;;;;;;;;5086520;28;20198;-84
2022/11/20 15:00:09;;;;;;;10.70;2.73;;;;;;;;;;5105925;28;20284;-83
2022/11/20 15:02:40;;;;;;;12.40;2.93;;;;;;;;;;5098815;28;20193;-84
2022/11/20 15:05:08;;;;;;;15.97;3.20;;;;;;;;;;5104005;28;20202;-84
2022/11/20 15:07:43;;;;;;;13.60;3.07;;;;;;;;;;5101078;28;20941;-84
2022/11/20 15:10:13;;;;;;;15.10;3.20;;;;;;;;;;5098137;28;20609;-84
2022/11/20 15:12:41;;;;;;;12.13;2.67;;;;;;;;;;5095473;28;20252;-84
2022/11/20 15:15:12;;;;;;;15.23;3.07;;;;;;;;;;5096409;28;20641;-85
2022/11/20 15:17:41;;;;;;;13.30;2.97;;;;;;;;;;5098219;28;20226;-84
2022/11/20 15:20:13;;;;;;;19.77;2.77;;;;;;;;;;5098879;28;20194;-83
2022/11/20 15:22:43;;;;;;;19.97;3.20;;;;;;;;;;5103146;28;20725;-83